sensor_id;sensor_type;location;lat;lon;timestamp;temperature;humidity
53314;DHT22;39202;51.468;7.146;2023-02-28T00:04:21;21.70;40.40
53314;DHT22;39202;51.468;7.146;2023-02-28T00:09:23;21.70;40.40
53314;DHT22;39202;51.468;7.146;2023-02-28T00:14:24;21.70;40.50
53314;DHT22;39202;51.468;7.146;2023-02-28T00:19:28;21.70;40.50
53314;DHT22;39202;51.468;7.146;2023-02-28T00:24:29;21.70;40.50
53314;DHT22;39202;51.468;7.146;2023-02-28T00:29:31;21.70;40.50
53314;DHT22;39202;51.468;7.146;2023-02-28T00:34:34;21.70;40.50
53314;DHT22;39202;51.468;7.146;2023-02-28T00:39:38;21.60;40.50
53314;DHT22;39202;51.468;7.146;2023-02-28T00:44:40;21.60;40.50
53314;DHT22;39202;51.468;7.146;2023-02-28T00:49:43;21.60;40.60
53314;DHT22;39202;51.468;7.146;2023-02-28T00:54:45;21.60;40.60
53314;DHT22;39202;51.468;7.146;2023-02-28T00:59:46;21.60;40.60
53314;DHT22;39202;51.468;7.146;2023-02-28T01:04:49;21.60;40.50
53314;DHT22;39202;51.468;7.146;2023-02-28T01:14:54;21.60;40.50
53314;DHT22;39202;51.468;7.146;2023-02-28T01:19:57;21.50;40.50
53314;DHT22;39202;51.468;7.146;2023-02-28T01:24:58;21.60;40.60
53314;DHT22;39202;51.468;7.146;2023-02-28T01:30:00;21.60;40.60
53314;DHT22;39202;51.468;7.146;2023-02-28T01:35:04;21.50;40.50
53314;DHT22;39202;51.468;7.146;2023-02-28T01:40:07;21.50;40.50
53314;DHT22;39202;51.468;7.146;2023-02-28T01:45:20;21.50;40.50
53314;DHT22;39202;51.468;7.146;2023-02-28T01:50:28;21.50;40.50
53314;DHT22;39202;51.468;7.146;2023-02-28T01:55:32;21.50;40.50
53314;DHT22;39202;51.468;7.146;2023-02-28T02:00:34;21.50;40.50
53314;DHT22;39202;51.468;7.146;2023-02-28T02:05:38;21.50;40.50
53314;DHT22;39202;51.468;7.146;2023-02-28T02:10:42;21.50;40.60
53314;DHT22;39202;51.468;7.146;2023-02-28T02:15:49;21.50;40.60
53314;DHT22;39202;51.468;7.146;2023-02-28T02:26:58;21.50;40.70
53314;DHT22;39202;51.468;7.146;2023-02-28T02:32:28;21.50;40.70
53314;DHT22;39202;51.468;7.146;2023-02-28T02:37:39;21.50;40.70
53314;DHT22;39202;51.468;7.146;2023-02-28T02:42:46;21.50;40.60
53314;DHT22;39202;51.468;7.146;2023-02-28T02:47:51;21.50;40.60
53314;DHT22;39202;51.468;7.146;2023-02-28T02:52:58;21.50;40.60
53314;DHT22;39202;51.468;7.146;2023-02-28T02:58:04;21.50;40.60
53314;DHT22;39202;51.468;7.146;2023-02-28T03:03:09;21.50;40.50
53314;DHT22;39202;51.468;7.146;2023-02-28T03:08:14;21.50;40.60
53314;DHT22;39202;51.468;7.146;2023-02-28T03:18:45;21.40;40.50
53314;DHT22;39202;51.468;7.146;2023-02-28T03:23:58;21.50;40.50
53314;DHT22;39202;51.468;7.146;2023-02-28T03:29:07;21.50;40.50
53314;DHT22;39202;51.468;7.146;2023-02-28T03:34:17;21.50;40.50
53314;DHT22;39202;51.468;7.146;2023-02-28T03:39:26;21.50;40.50
53314;DHT22;39202;51.468;7.146;2023-02-28T03:44:33;21.50;40.50
53314;DHT22;39202;51.468;7.146;2023-02-28T03:49:40;21.50;40.50
53314;DHT22;39202;51.468;7.146;2023-02-28T03:54:48;21.50;40.50
53314;DHT22;39202;51.468;7.146;2023-02-28T03:59:56;21.50;40.50
53314;DHT22;39202;51.468;7.146;2023-02-28T04:04:59;21.40;40.50
53314;DHT22;39202;51.468;7.146;2023-02-28T04:10:03;21.40;40.50
53314;DHT22;39202;51.468;7.146;2023-02-28T04:15:06;21.40;40.50
53314;DHT22;39202;51.468;7.146;2023-02-28T04:20:09;21.40;41.10
53314;DHT22;39202;51.468;7.146;2023-02-28T04:25:13;21.40;40.50
53314;DHT22;39202;51.468;7.146;2023-02-28T04:30:15;21.40;40.40
53314;DHT22;39202;51.468;7.146;2023-02-28T04:35:17;21.40;40.40
53314;DHT22;39202;51.468;7.146;2023-02-28T04:40:20;21.40;40.40
53314;DHT22;39202;51.468;7.146;2023-02-28T04:45:22;21.40;40.40
53314;DHT22;39202;51.468;7.146;2023-02-28T04:50:24;21.40;40.50
53314;DHT22;39202;51.468;7.146;2023-02-28T04:55:27;21.40;40.50
53314;DHT22;39202;51.468;7.146;2023-02-28T05:00:28;21.40;40.50
53314;DHT22;39202;51.468;7.146;2023-02-28T05:05:30;21.40;40.50
53314;DHT22;39202;51.468;7.146;2023-02-28T05:10:33;21.40;40.50
53314;DHT22;39202;51.468;7.146;2023-02-28T05:15:35;21.40;40.50
53314;DHT22;39202;51.468;7.146;2023-02-28T05:20:37;21.40;40.50
53314;DHT22;39202;51.468;7.146;2023-02-28T05:25:40;21.50;40.50
53314;DHT22;39202;51.468;7.146;2023-02-28T05:30:42;21.50;40.50
53314;DHT22;39202;51.468;7.146;2023-02-28T05:35:43;21.50;40.40
53314;DHT22;39202;51.468;7.146;2023-02-28T05:40:46;21.50;40.50
53314;DHT22;39202;51.468;7.146;2023-02-28T05:45:48;21.50;40.40
53314;DHT22;39202;51.468;7.146;2023-02-28T05:50:50;21.50;40.40
53314;DHT22;39202;51.468;7.146;2023-02-28T05:55:53;21.50;40.40
53314;DHT22;39202;51.468;7.146;2023-02-28T06:00:55;21.50;40.40
53314;DHT22;39202;51.468;7.146;2023-02-28T06:05:57;21.50;40.30
53314;DHT22;39202;51.468;7.146;2023-02-28T06:11:02;21.50;40.30
53314;DHT22;39202;51.468;7.146;2023-02-28T06:16:05;21.60;40.40
53314;DHT22;39202;51.468;7.146;2023-02-28T06:21:07;21.40;40.30
53314;DHT22;39202;51.468;7.146;2023-02-28T06:26:11;21.40;40.40
53314;DHT22;39202;51.468;7.146;2023-02-28T06:31:14;21.40;40.40
53314;DHT22;39202;51.468;7.146;2023-02-28T06:36:16;21.40;40.50
53314;DHT22;39202;51.468;7.146;2023-02-28T06:41:20;21.40;40.40
53314;DHT22;39202;51.468;7.146;2023-02-28T06:46:22;21.40;40.50
53314;DHT22;39202;51.468;7.146;2023-02-28T06:51:24;21.40;40.50
53314;DHT22;39202;51.468;7.146;2023-02-28T06:56:29;21.40;40.50
53314;DHT22;39202;51.468;7.146;2023-02-28T07:01:31;21.40;40.50
53314;DHT22;39202;51.468;7.146;2023-02-28T07:06:33;21.30;40.50
53314;DHT22;39202;51.468;7.146;2023-02-28T07:11:36;21.30;40.50
53314;DHT22;39202;51.468;7.146;2023-02-28T07:16:38;21.40;40.70
53314;DHT22;39202;51.468;7.146;2023-02-28T07:21:39;21.40;40.80
53314;DHT22;39202;51.468;7.146;2023-02-28T07:26:42;21.40;40.80
53314;DHT22;39202;51.468;7.146;2023-02-28T07:31:44;21.50;40.80
53314;DHT22;39202;51.468;7.146;2023-02-28T07:36:47;21.60;40.70
53314;DHT22;39202;51.468;7.146;2023-02-28T07:41:50;21.60;40.60
53314;DHT22;39202;51.468;7.146;2023-02-28T07:46:51;21.70;40.70
53314;DHT22;39202;51.468;7.146;2023-02-28T07:51:54;21.70;40.60
53314;DHT22;39202;51.468;7.146;2023-02-28T07:56:57;21.70;40.60
53314;DHT22;39202;51.468;7.146;2023-02-28T08:01:58;21.70;41.10
53314;DHT22;39202;51.468;7.146;2023-02-28T08:07:00;21.80;40.60
53314;DHT22;39202;51.468;7.146;2023-02-28T08:12:03;21.80;40.70
53314;DHT22;39202;51.468;7.146;2023-02-28T08:17:06;22.00;40.70
53314;DHT22;39202;51.468;7.146;2023-02-28T08:22:08;22.00;40.80
53314;DHT22;39202;51.468;7.146;2023-02-28T08:27:11;22.10;40.80
53314;DHT22;39202;51.468;7.146;2023-02-28T08:32:13;22.20;40.80
53314;DHT22;39202;51.468;7.146;2023-02-28T08:37:15;22.30;40.90
53314;DHT22;39202;51.468;7.146;2023-02-28T08:42:18;22.40;41.00
53314;DHT22;39202;51.468;7.146;2023-02-28T08:47:20;22.50;41.00
53314;DHT22;39202;51.468;7.146;2023-02-28T08:52:22;22.60;41.00
53314;DHT22;39202;51.468;7.146;2023-02-28T08:57:25;22.80;41.20
53314;DHT22;39202;51.468;7.146;2023-02-28T09:02:27;23.00;41.30
53314;DHT22;39202;51.468;7.146;2023-02-28T09:07:29;23.20;41.20
53314;DHT22;39202;51.468;7.146;2023-02-28T09:12:34;23.40;41.10
53314;DHT22;39202;51.468;7.146;2023-02-28T09:17:36;23.60;41.10
53314;DHT22;39202;51.468;7.146;2023-02-28T09:22:37;23.80;41.10
53314;DHT22;39202;51.468;7.146;2023-02-28T09:27:40;23.90;41.00
53314;DHT22;39202;51.468;7.146;2023-02-28T09:32:42;24.10;40.90
53314;DHT22;39202;51.468;7.146;2023-02-28T09:37:52;24.20;40.80
53314;DHT22;39202;51.468;7.146;2023-02-28T09:42:57;24.30;40.60
53314;DHT22;39202;51.468;7.146;2023-02-28T09:48:03;24.40;40.60
53314;DHT22;39202;51.468;7.146;2023-02-28T09:53:13;24.50;40.50
53314;DHT22;39202;51.468;7.146;2023-02-28T09:58:21;24.60;40.50
53314;DHT22;39202;51.468;7.146;2023-02-28T10:03:29;24.70;40.30
53314;DHT22;39202;51.468;7.146;2023-02-28T10:13:45;24.80;39.70
53314;DHT22;39202;51.468;7.146;2023-02-28T10:18:53;24.90;40.20
53314;DHT22;39202;51.468;7.146;2023-02-28T10:24:03;25.00;40.20
53314;DHT22;39202;51.468;7.146;2023-02-28T10:29:09;25.00;40.20
53314;DHT22;39202;51.468;7.146;2023-02-28T10:34:12;25.10;40.20
53314;DHT22;39202;51.468;7.146;2023-02-28T10:39:36;25.10;40.20
53314;DHT22;39202;51.468;7.146;2023-02-28T10:44:40;25.20;40.10
53314;DHT22;39202;51.468;7.146;2023-02-28T10:49:47;25.30;40.20
53314;DHT22;39202;51.468;7.146;2023-02-28T10:54:49;25.30;40.00
53314;DHT22;39202;51.468;7.146;2023-02-28T10:59:53;25.30;40.00
53314;DHT22;39202;51.468;7.146;2023-02-28T11:05:26;25.30;40.00
53314;DHT22;39202;51.468;7.146;2023-02-28T11:10:30;25.40;40.10
53314;DHT22;39202;51.468;7.146;2023-02-28T11:15:36;25.40;40.10
53314;DHT22;39202;51.468;7.146;2023-02-28T11:20:38;25.50;40.00
53314;DHT22;39202;51.468;7.146;2023-02-28T11:25:47;25.50;40.00
53314;DHT22;39202;51.468;7.146;2023-02-28T11:31:00;25.60;40.00
53314;DHT22;39202;51.468;7.146;2023-02-28T11:36:08;25.60;40.00
53314;DHT22;39202;51.468;7.146;2023-02-28T11:51:47;25.80;39.20
53314;DHT22;39202;51.468;7.146;2023-02-28T11:56:53;25.80;39.90
53314;DHT22;39202;51.468;7.146;2023-02-28T12:02:08;25.80;40.00
53314;DHT22;39202;51.468;7.146;2023-02-28T12:07:21;25.80;39.90
53314;DHT22;39202;51.468;7.146;2023-02-28T12:12:38;25.80;39.90
53314;DHT22;39202;51.468;7.146;2023-02-28T12:17:55;25.80;39.80
53314;DHT22;39202;51.468;7.146;2023-02-28T12:23:18;25.80;39.80
53314;DHT22;39202;51.468;7.146;2023-02-28T12:28:25;25.80;39.70
53314;DHT22;39202;51.468;7.146;2023-02-28T12:33:34;25.80;39.70
53314;DHT22;39202;51.468;7.146;2023-02-28T12:38:40;25.70;39.60
53314;DHT22;39202;51.468;7.146;2023-02-28T12:43:46;25.80;39.70
53314;DHT22;39202;51.468;7.146;2023-02-28T12:48:53;25.70;39.60
53314;DHT22;39202;51.468;7.146;2023-02-28T12:54:04;25.70;39.60
53314;DHT22;39202;51.468;7.146;2023-02-28T12:59:14;25.70;39.60
53314;DHT22;39202;51.468;7.146;2023-02-28T13:05:02;25.70;39.70
53314;DHT22;39202;51.468;7.146;2023-02-28T13:10:09;25.70;39.70
53314;DHT22;39202;51.468;7.146;2023-02-28T13:15:18;25.70;39.70
53314;DHT22;39202;51.468;7.146;2023-02-28T13:20:25;25.70;39.80
53314;DHT22;39202;51.468;7.146;2023-02-28T13:25:49;25.70;39.80
53314;DHT22;39202;51.468;7.146;2023-02-28T13:31:03;25.70;39.80
53314;DHT22;39202;51.468;7.146;2023-02-28T13:36:25;25.70;39.80
53314;DHT22;39202;51.468;7.146;2023-02-28T13:41:46;26.20;40.10
53314;DHT22;39202;51.468;7.146;2023-02-28T13:47:21;25.70;39.80
53314;DHT22;39202;51.468;7.146;2023-02-28T13:52:26;25.70;39.80
53314;DHT22;39202;51.468;7.146;2023-02-28T13:57:39;25.60;39.80
53314;DHT22;39202;51.468;7.146;2023-02-28T14:02:57;26.00;40.00
53314;DHT22;39202;51.468;7.146;2023-02-28T14:08:07;25.60;39.90
53314;DHT22;39202;51.468;7.146;2023-02-28T14:13:44;25.60;39.90
53314;DHT22;39202;51.468;7.146;2023-02-28T14:18:50;25.60;39.80
53314;DHT22;39202;51.468;7.146;2023-02-28T14:24:24;25.60;39.90
53314;DHT22;39202;51.468;7.146;2023-02-28T14:35:05;25.50;39.30
53314;DHT22;39202;51.468;7.146;2023-02-28T14:40:19;25.40;39.30
53314;DHT22;39202;51.468;7.146;2023-02-28T14:45:22;25.30;39.50
53314;DHT22;39202;51.468;7.146;2023-02-28T14:50:27;25.30;39.50
53314;DHT22;39202;51.468;7.146;2023-02-28T14:55:34;25.30;39.70
53314;DHT22;39202;51.468;7.146;2023-02-28T15:00:47;25.30;39.70
53314;DHT22;39202;51.468;7.146;2023-02-28T15:05:54;25.20;39.80
53314;DHT22;39202;51.468;7.146;2023-02-28T15:11:00;25.20;39.90
53314;DHT22;39202;51.468;7.146;2023-02-28T15:16:04;25.10;39.90
53314;DHT22;39202;51.468;7.146;2023-02-28T15:21:13;25.10;39.90
53314;DHT22;39202;51.468;7.146;2023-02-28T15:26:20;25.10;39.90
53314;DHT22;39202;51.468;7.146;2023-02-28T15:31:26;25.10;39.90
53314;DHT22;39202;51.468;7.146;2023-02-28T15:36:30;25.20;40.00
53314;DHT22;39202;51.468;7.146;2023-02-28T15:41:37;25.00;39.90
53314;DHT22;39202;51.468;7.146;2023-02-28T15:46:39;25.00;40.00
53314;DHT22;39202;51.468;7.146;2023-02-28T15:51:43;25.00;40.10
53314;DHT22;39202;51.468;7.146;2023-02-28T15:56:48;24.90;40.10
53314;DHT22;39202;51.468;7.146;2023-02-28T16:02:10;24.90;40.10
53314;DHT22;39202;51.468;7.146;2023-02-28T16:07:13;24.90;39.80
53314;DHT22;39202;51.468;7.146;2023-02-28T16:12:17;24.80;39.70
53314;DHT22;39202;51.468;7.146;2023-02-28T16:17:22;24.70;39.50
53314;DHT22;39202;51.468;7.146;2023-02-28T16:22:24;24.60;39.50
53314;DHT22;39202;51.468;7.146;2023-02-28T16:27:32;24.60;42.60
53314;DHT22;39202;51.468;7.146;2023-02-28T16:32:35;24.50;42.80
53314;DHT22;39202;51.468;7.146;2023-02-28T16:37:37;24.50;41.20
53314;DHT22;39202;51.468;7.146;2023-02-28T16:42:40;24.40;39.50
53314;DHT22;39202;51.468;7.146;2023-02-28T16:47:42;24.40;39.50
53314;DHT22;39202;51.468;7.146;2023-02-28T16:52:44;24.30;39.50
53314;DHT22;39202;51.468;7.146;2023-02-28T16:57:51;24.20;39.60
53314;DHT22;39202;51.468;7.146;2023-02-28T17:02:53;24.20;39.60
53314;DHT22;39202;51.468;7.146;2023-02-28T17:07:55;24.20;39.70
53314;DHT22;39202;51.468;7.146;2023-02-28T17:12:58;24.10;39.60
53314;DHT22;39202;51.468;7.146;2023-02-28T17:18:00;24.10;39.70
53314;DHT22;39202;51.468;7.146;2023-02-28T17:23:03;24.00;39.70
53314;DHT22;39202;51.468;7.146;2023-02-28T17:28:06;24.00;39.70
53314;DHT22;39202;51.468;7.146;2023-02-28T17:33:08;23.90;39.70
53314;DHT22;39202;51.468;7.146;2023-02-28T17:38:16;23.90;39.80
53314;DHT22;39202;51.468;7.146;2023-02-28T17:43:19;23.90;39.80
53314;DHT22;39202;51.468;7.146;2023-02-28T17:48:21;23.90;39.80
53314;DHT22;39202;51.468;7.146;2023-02-28T17:53:23;23.90;39.70
53314;DHT22;39202;51.468;7.146;2023-02-28T17:58:26;23.80;39.80
53314;DHT22;39202;51.468;7.146;2023-02-28T18:03:28;23.80;39.90
53314;DHT22;39202;51.468;7.146;2023-02-28T18:08:32;23.80;39.90
53314;DHT22;39202;51.468;7.146;2023-02-28T18:13:37;23.70;39.90
53314;DHT22;39202;51.468;7.146;2023-02-28T18:18:38;23.70;39.90
53314;DHT22;39202;51.468;7.146;2023-02-28T18:23:40;23.70;39.90
53314;DHT22;39202;51.468;7.146;2023-02-28T18:28:48;23.60;39.90
53314;DHT22;39202;51.468;7.146;2023-02-28T18:33:51;23.60;40.00
53314;DHT22;39202;51.468;7.146;2023-02-28T18:38:53;23.60;40.00
53314;DHT22;39202;51.468;7.146;2023-02-28T18:43:57;23.50;40.00
53314;DHT22;39202;51.468;7.146;2023-02-28T18:49:01;23.50;40.00
53314;DHT22;39202;51.468;7.146;2023-02-28T18:54:03;23.40;40.00
53314;DHT22;39202;51.468;7.146;2023-02-28T18:59:06;23.40;40.00
53314;DHT22;39202;51.468;7.146;2023-02-28T19:04:11;23.40;40.00
53314;DHT22;39202;51.468;7.146;2023-02-28T19:09:13;23.40;40.10
53314;DHT22;39202;51.468;7.146;2023-02-28T19:14:16;23.30;40.00
53314;DHT22;39202;51.468;7.146;2023-02-28T19:19:18;23.30;40.10
53314;DHT22;39202;51.468;7.146;2023-02-28T19:24:20;23.30;40.10
53314;DHT22;39202;51.468;7.146;2023-02-28T19:29:23;23.20;40.10
53314;DHT22;39202;51.468;7.146;2023-02-28T19:34:24;23.20;40.10
53314;DHT22;39202;51.468;7.146;2023-02-28T19:39:26;23.20;40.20
53314;DHT22;39202;51.468;7.146;2023-02-28T19:44:29;23.10;40.10
53314;DHT22;39202;51.468;7.146;2023-02-28T19:49:31;23.10;40.20
53314;DHT22;39202;51.468;7.146;2023-02-28T19:54:33;23.10;40.20
53314;DHT22;39202;51.468;7.146;2023-02-28T19:59:36;23.00;40.20
53314;DHT22;39202;51.468;7.146;2023-02-28T20:04:38;23.00;40.20
53314;DHT22;39202;51.468;7.146;2023-02-28T20:09:40;23.00;40.20
53314;DHT22;39202;51.468;7.146;2023-02-28T20:14:43;23.00;40.30
53314;DHT22;39202;51.468;7.146;2023-02-28T20:19:45;22.90;40.30
53314;DHT22;39202;51.468;7.146;2023-02-28T20:24:47;22.90;40.20
53314;DHT22;39202;51.468;7.146;2023-02-28T20:29:50;22.90;40.30
53314;DHT22;39202;51.468;7.146;2023-02-28T20:34:52;22.90;40.40
53314;DHT22;39202;51.468;7.146;2023-02-28T20:39:54;22.90;40.30
53314;DHT22;39202;51.468;7.146;2023-02-28T20:44:57;22.80;40.30
53314;DHT22;39202;51.468;7.146;2023-02-28T20:49:59;22.80;40.30
53314;DHT22;39202;51.468;7.146;2023-02-28T20:55:01;22.80;40.30
53314;DHT22;39202;51.468;7.146;2023-02-28T21:00:05;22.80;40.40
53314;DHT22;39202;51.468;7.146;2023-02-28T21:05:08;22.70;40.40
53314;DHT22;39202;51.468;7.146;2023-02-28T21:10:11;22.70;40.40
53314;DHT22;39202;51.468;7.146;2023-02-28T21:15:14;22.70;40.40
53314;DHT22;39202;51.468;7.146;2023-02-28T21:20:17;22.70;40.40
53314;DHT22;39202;51.468;7.146;2023-02-28T21:25:22;22.60;40.40
53314;DHT22;39202;51.468;7.146;2023-02-28T21:30:25;22.60;40.40
53314;DHT22;39202;51.468;7.146;2023-02-28T21:35:27;22.60;40.40
53314;DHT22;39202;51.468;7.146;2023-02-28T21:40:28;22.50;41.00
53314;DHT22;39202;51.468;7.146;2023-02-28T21:45:32;22.50;40.40
53314;DHT22;39202;51.468;7.146;2023-02-28T21:50:34;22.50;40.40
53314;DHT22;39202;51.468;7.146;2023-02-28T21:55:36;22.50;41.00
53314;DHT22;39202;51.468;7.146;2023-02-28T22:00:39;22.50;40.40
53314;DHT22;39202;51.468;7.146;2023-02-28T22:05:41;22.50;40.40
53314;DHT22;39202;51.468;7.146;2023-02-28T22:10:43;22.50;40.50
53314;DHT22;39202;51.468;7.146;2023-02-28T22:15:46;22.50;40.40
53314;DHT22;39202;51.468;7.146;2023-02-28T22:20:53;22.50;40.50
53314;DHT22;39202;51.468;7.146;2023-02-28T22:25:54;22.40;40.50
53314;DHT22;39202;51.468;7.146;2023-02-28T22:30:59;22.40;40.50
53314;DHT22;39202;51.468;7.146;2023-02-28T22:36:04;22.40;40.50
53314;DHT22;39202;51.468;7.146;2023-02-28T22:41:06;22.40;40.60
53314;DHT22;39202;51.468;7.146;2023-02-28T22:46:11;22.30;40.50
53314;DHT22;39202;51.468;7.146;2023-02-28T22:51:15;22.30;40.50
53314;DHT22;39202;51.468;7.146;2023-02-28T22:56:18;22.30;40.60
53314;DHT22;39202;51.468;7.146;2023-02-28T23:01:24;22.30;40.60
53314;DHT22;39202;51.468;7.146;2023-02-28T23:06:27;22.20;40.50
53314;DHT22;39202;51.468;7.146;2023-02-28T23:11:31;22.20;40.60
53314;DHT22;39202;51.468;7.146;2023-02-28T23:16:36;22.20;40.60
53314;DHT22;39202;51.468;7.146;2023-02-28T23:21:38;22.20;40.60
53314;DHT22;39202;51.468;7.146;2023-02-28T23:26:42;22.20;40.60
53314;DHT22;39202;51.468;7.146;2023-02-28T23:31:46;22.20;40.60
53314;DHT22;39202;51.468;7.146;2023-02-28T23:36:48;22.20;40.60
53314;DHT22;39202;51.468;7.146;2023-02-28T23:41:50;22.10;40.60
53314;DHT22;39202;51.468;7.146;2023-02-28T23:46:53;22.10;40.60
53314;DHT22;39202;51.468;7.146;2023-02-28T23:51:55;22.10;40.60
53314;DHT22;39202;51.468;7.146;2023-02-28T23:56:57;22.10;40.60
